sensor_id;sensor_type;location;lat;lon;timestamp;temperature;humidity
66035;HTU21D;52805;51.074;5.842;2024-03-23T00:55:33;9.59;28.44
66035;HTU21D;52805;51.074;5.842;2024-03-23T00:57:59;9.61;28.07
66035;HTU21D;52805;51.074;5.842;2024-03-23T01:00:24;9.66;28.80
66035;HTU21D;52805;51.074;5.842;2024-03-23T01:02:50;9.68;29.16
66035;HTU21D;52805;51.074;5.842;2024-03-23T01:05:15;9.71;29.00
66035;HTU21D;52805;51.074;5.842;2024-03-23T01:07:41;9.74;28.81
66035;HTU21D;52805;51.074;5.842;2024-03-23T01:10:07;9.76;29.86
66035;HTU21D;52805;51.074;5.842;2024-03-23T01:12:33;9.78;29.11
66035;HTU21D;52805;51.074;5.842;2024-03-23T01:14:58;9.80;28.94
66035;HTU21D;52805;51.074;5.842;2024-03-23T01:17:24;9.80;29.22
66035;HTU21D;52805;51.074;5.842;2024-03-23T01:19:50;9.82;29.20
66035;HTU21D;52805;51.074;5.842;2024-03-23T01:22:15;9.84;29.22
66035;HTU21D;52805;51.074;5.842;2024-03-23T01:24:41;9.89;29.48
66035;HTU21D;52805;51.074;5.842;2024-03-23T01:27:08;9.89;28.65
66035;HTU21D;52805;51.074;5.842;2024-03-23T01:29:34;9.89;27.97
66035;HTU21D;52805;51.074;5.842;2024-03-23T01:31:59;9.86;28.58
66035;HTU21D;52805;51.074;5.842;2024-03-23T01:34:25;9.88;28.00
66035;HTU21D;52805;51.074;5.842;2024-03-23T01:36:51;9.88;27.91
66035;HTU21D;52805;51.074;5.842;2024-03-23T01:39:16;9.86;28.53
66035;HTU21D;52805;51.074;5.842;2024-03-23T01:41:42;9.86;27.96
66035;HTU21D;52805;51.074;5.842;2024-03-23T01:44:08;9.85;27.70
66035;HTU21D;52805;51.074;5.842;2024-03-23T01:46:38;9.85;28.84
66035;HTU21D;52805;51.074;5.842;2024-03-23T01:49:07;9.85;28.50
66035;HTU21D;52805;51.074;5.842;2024-03-23T01:51:34;9.84;28.76
66035;HTU21D;52805;51.074;5.842;2024-03-23T01:54:02;9.84;29.08
66035;HTU21D;52805;51.074;5.842;2024-03-23T01:56:33;9.84;29.16
66035;HTU21D;52805;51.074;5.842;2024-03-23T01:59:02;9.83;28.17
66035;HTU21D;52805;51.074;5.842;2024-03-23T02:01:28;9.82;28.71
66035;HTU21D;52805;51.074;5.842;2024-03-23T02:03:54;9.81;28.58
66035;HTU21D;52805;51.074;5.842;2024-03-23T02:06:21;9.81;27.81
66035;HTU21D;52805;51.074;5.842;2024-03-23T02:08:47;9.77;28.18
66035;HTU21D;52805;51.074;5.842;2024-03-23T02:11:14;9.78;28.03
66035;HTU21D;52805;51.074;5.842;2024-03-23T02:13:40;9.78;28.20
66035;HTU21D;52805;51.074;5.842;2024-03-23T02:16:06;9.76;28.52
66035;HTU21D;52805;51.074;5.842;2024-03-23T02:18:34;9.75;28.44
66035;HTU21D;52805;51.074;5.842;2024-03-23T02:21:00;9.76;29.49
66035;HTU21D;52805;51.074;5.842;2024-03-23T02:23:26;9.77;28.95
66035;HTU21D;52805;51.074;5.842;2024-03-23T02:25:52;9.76;29.48
66035;HTU21D;52805;51.074;5.842;2024-03-23T02:28:19;9.72;29.54
66035;HTU21D;52805;51.074;5.842;2024-03-23T02:30:45;9.70;29.67
66035;HTU21D;52805;51.074;5.842;2024-03-23T02:33:10;9.68;29.10
66035;HTU21D;52805;51.074;5.842;2024-03-23T02:35:36;9.69;29.00
66035;HTU21D;52805;51.074;5.842;2024-03-23T02:38:02;9.67;29.06
66035;HTU21D;52805;51.074;5.842;2024-03-23T02:40:28;9.65;29.22
66035;HTU21D;52805;51.074;5.842;2024-03-23T02:42:54;9.63;29.64
66035;HTU21D;52805;51.074;5.842;2024-03-23T02:45:20;9.63;30.37
66035;HTU21D;52805;51.074;5.842;2024-03-23T02:47:46;9.62;30.28
66035;HTU21D;52805;51.074;5.842;2024-03-23T02:50:11;9.59;30.05
66035;HTU21D;52805;51.074;5.842;2024-03-23T02:52:37;9.60;30.15
66035;HTU21D;52805;51.074;5.842;2024-03-23T02:55:03;9.60;30.39
66035;HTU21D;52805;51.074;5.842;2024-03-23T02:57:30;9.57;30.96
66035;HTU21D;52805;51.074;5.842;2024-03-23T02:59:55;9.57;30.94
66035;HTU21D;52805;51.074;5.842;2024-03-23T03:02:24;9.56;31.15
66035;HTU21D;52805;51.074;5.842;2024-03-23T03:04:50;9.56;30.26
66035;HTU21D;52805;51.074;5.842;2024-03-23T03:07:15;9.50;30.94
66035;HTU21D;52805;51.074;5.842;2024-03-23T03:09:41;9.46;30.36
66035;HTU21D;52805;51.074;5.842;2024-03-23T03:12:07;9.40;30.71
66035;HTU21D;52805;51.074;5.842;2024-03-23T03:14:33;9.35;30.56
66035;HTU21D;52805;51.074;5.842;2024-03-23T03:16:59;9.31;30.30
66035;HTU21D;52805;51.074;5.842;2024-03-23T03:19:25;9.29;30.30
66035;HTU21D;52805;51.074;5.842;2024-03-23T03:21:51;9.24;30.10
66035;HTU21D;52805;51.074;5.842;2024-03-23T03:24:16;9.22;30.56
66035;HTU21D;52805;51.074;5.842;2024-03-23T03:26:42;9.24;31.54
66035;HTU21D;52805;51.074;5.842;2024-03-23T03:29:09;9.21;31.16
66035;HTU21D;52805;51.074;5.842;2024-03-23T03:31:34;9.23;30.99
66035;HTU21D;52805;51.074;5.842;2024-03-23T03:34:00;9.24;31.16
66035;HTU21D;52805;51.074;5.842;2024-03-23T03:36:26;9.23;31.24
66035;HTU21D;52805;51.074;5.842;2024-03-23T03:38:51;9.23;31.41
66035;HTU21D;52805;51.074;5.842;2024-03-23T03:41:18;9.17;31.71
66035;HTU21D;52805;51.074;5.842;2024-03-23T03:43:44;9.16;32.12
66035;HTU21D;52805;51.074;5.842;2024-03-23T03:46:09;9.15;31.34
66035;HTU21D;52805;51.074;5.842;2024-03-23T03:48:36;9.12;32.09
66035;HTU21D;52805;51.074;5.842;2024-03-23T03:51:03;9.11;32.76
66035;HTU21D;52805;51.074;5.842;2024-03-23T03:53:29;9.08;32.43
66035;HTU21D;52805;51.074;5.842;2024-03-23T03:55:54;9.06;32.02
66035;HTU21D;52805;51.074;5.842;2024-03-23T03:58:20;9.00;32.51
66035;HTU21D;52805;51.074;5.842;2024-03-23T04:00:46;8.98;33.05
66035;HTU21D;52805;51.074;5.842;2024-03-23T04:03:11;8.92;32.96
66035;HTU21D;52805;51.074;5.842;2024-03-23T04:05:37;8.95;32.17
66035;HTU21D;52805;51.074;5.842;2024-03-23T04:08:04;8.91;32.55
66035;HTU21D;52805;51.074;5.842;2024-03-23T04:10:30;8.89;31.56
66035;HTU21D;52805;51.074;5.842;2024-03-23T04:12:56;8.89;31.51
66035;HTU21D;52805;51.074;5.842;2024-03-23T04:15:21;8.87;32.40
66035;HTU21D;52805;51.074;5.842;2024-03-23T04:17:47;8.86;32.64
66035;HTU21D;52805;51.074;5.842;2024-03-23T04:20:13;8.83;32.18
66035;HTU21D;52805;51.074;5.842;2024-03-23T04:22:45;8.82;32.19
66035;HTU21D;52805;51.074;5.842;2024-03-23T04:25:11;8.80;33.19
66035;HTU21D;52805;51.074;5.842;2024-03-23T04:27:37;8.78;33.19
66035;HTU21D;52805;51.074;5.842;2024-03-23T04:30:04;8.68;33.22
66035;HTU21D;52805;51.074;5.842;2024-03-23T04:32:35;8.61;32.73
66035;HTU21D;52805;51.074;5.842;2024-03-23T04:35:01;8.52;34.05
66035;HTU21D;52805;51.074;5.842;2024-03-23T04:37:27;8.49;33.75
66035;HTU21D;52805;51.074;5.842;2024-03-23T04:39:52;8.41;34.56
66035;HTU21D;52805;51.074;5.842;2024-03-23T04:42:18;8.36;33.93
66035;HTU21D;52805;51.074;5.842;2024-03-23T04:44:43;8.31;34.72
66035;HTU21D;52805;51.074;5.842;2024-03-23T04:47:10;8.23;34.37
66035;HTU21D;52805;51.074;5.842;2024-03-23T04:49:38;8.26;34.87
66035;HTU21D;52805;51.074;5.842;2024-03-23T04:52:04;8.18;34.73
66035;HTU21D;52805;51.074;5.842;2024-03-23T04:54:30;8.14;34.73
66035;HTU21D;52805;51.074;5.842;2024-03-23T04:56:58;8.08;34.63
66035;HTU21D;52805;51.074;5.842;2024-03-23T04:59:23;8.07;35.42
66035;HTU21D;52805;51.074;5.842;2024-03-23T05:01:49;8.06;35.02
66035;HTU21D;52805;51.074;5.842;2024-03-23T05:04:15;8.00;35.44
66035;HTU21D;52805;51.074;5.842;2024-03-23T05:06:41;7.99;34.66
66035;HTU21D;52805;51.074;5.842;2024-03-23T05:09:07;7.96;35.53
66035;HTU21D;52805;51.074;5.842;2024-03-23T05:11:33;7.92;35.10
66035;HTU21D;52805;51.074;5.842;2024-03-23T05:14:00;7.90;34.82
66035;HTU21D;52805;51.074;5.842;2024-03-23T05:16:26;7.88;35.60
66035;HTU21D;52805;51.074;5.842;2024-03-23T05:18:52;7.84;35.59
66035;HTU21D;52805;51.074;5.842;2024-03-23T05:21:18;7.82;35.97
66035;HTU21D;52805;51.074;5.842;2024-03-23T05:23:43;7.79;36.03
66035;HTU21D;52805;51.074;5.842;2024-03-23T05:26:09;7.78;36.28
66035;HTU21D;52805;51.074;5.842;2024-03-23T05:28:35;7.76;36.27
66035;HTU21D;52805;51.074;5.842;2024-03-23T05:31:01;7.81;36.54
66035;HTU21D;52805;51.074;5.842;2024-03-23T05:33:27;7.78;36.43
66035;HTU21D;52805;51.074;5.842;2024-03-23T05:35:59;7.75;35.71
66035;HTU21D;52805;51.074;5.842;2024-03-23T05:38:25;7.75;36.56
66035;HTU21D;52805;51.074;5.842;2024-03-23T05:40:58;7.74;35.89
66035;HTU21D;52805;51.074;5.842;2024-03-23T05:43:24;7.74;36.62
66035;HTU21D;52805;51.074;5.842;2024-03-23T05:45:54;7.76;36.52
66035;HTU21D;52805;51.074;5.842;2024-03-23T05:48:20;7.79;36.59
66035;HTU21D;52805;51.074;5.842;2024-03-23T05:50:47;7.77;36.14
66035;HTU21D;52805;51.074;5.842;2024-03-23T05:53:13;7.76;36.38
66035;HTU21D;52805;51.074;5.842;2024-03-23T05:55:39;7.76;36.92
66035;HTU21D;52805;51.074;5.842;2024-03-23T05:58:05;7.81;36.37
66035;HTU21D;52805;51.074;5.842;2024-03-23T06:00:31;7.77;36.64
66035;HTU21D;52805;51.074;5.842;2024-03-23T06:02:57;7.79;37.52
66035;HTU21D;52805;51.074;5.842;2024-03-23T06:05:23;7.81;37.60
66035;HTU21D;52805;51.074;5.842;2024-03-23T06:07:49;7.84;37.63
66035;HTU21D;52805;51.074;5.842;2024-03-23T06:10:15;7.84;37.08
66035;HTU21D;52805;51.074;5.842;2024-03-23T06:12:42;7.87;37.92
66035;HTU21D;52805;51.074;5.842;2024-03-23T06:15:08;7.91;37.79
66035;HTU21D;52805;51.074;5.842;2024-03-23T06:17:37;7.96;37.40
66035;HTU21D;52805;51.074;5.842;2024-03-23T06:20:03;7.98;38.39
66035;HTU21D;52805;51.074;5.842;2024-03-23T06:22:29;8.03;38.10
66035;HTU21D;52805;51.074;5.842;2024-03-23T06:24:54;8.09;38.26
66035;HTU21D;52805;51.074;5.842;2024-03-23T06:27:20;8.12;37.34
66035;HTU21D;52805;51.074;5.842;2024-03-23T06:29:45;8.14;36.63
66035;HTU21D;52805;51.074;5.842;2024-03-23T06:32:11;8.18;35.19
66035;HTU21D;52805;51.074;5.842;2024-03-23T06:34:37;8.13;33.45
66035;HTU21D;52805;51.074;5.842;2024-03-23T06:37:02;8.07;30.00
66035;HTU21D;52805;51.074;5.842;2024-03-23T06:39:29;8.06;29.16
66035;HTU21D;52805;51.074;5.842;2024-03-23T06:41:55;8.07;27.29
66035;HTU21D;52805;51.074;5.842;2024-03-23T06:44:20;8.09;27.67
66035;HTU21D;52805;51.074;5.842;2024-03-23T06:46:47;8.14;26.50
66035;HTU21D;52805;51.074;5.842;2024-03-23T06:49:14;8.14;26.08
66035;HTU21D;52805;51.074;5.842;2024-03-23T06:51:41;8.09;25.14
66035;HTU21D;52805;51.074;5.842;2024-03-23T06:54:06;8.11;24.57
66035;HTU21D;52805;51.074;5.842;2024-03-23T06:56:32;8.05;23.94
66035;HTU21D;52805;51.074;5.842;2024-03-23T06:58:58;8.01;23.88
66035;HTU21D;52805;51.074;5.842;2024-03-23T07:01:24;7.99;23.17
66035;HTU21D;52805;51.074;5.842;2024-03-23T07:03:50;8.03;23.02
66035;HTU21D;52805;51.074;5.842;2024-03-23T07:06:15;8.08;22.98
66035;HTU21D;52805;51.074;5.842;2024-03-23T07:08:41;8.12;22.70
66035;HTU21D;52805;51.074;5.842;2024-03-23T07:11:07;8.12;23.32
66035;HTU21D;52805;51.074;5.842;2024-03-23T07:13:33;8.16;22.80
66035;HTU21D;52805;51.074;5.842;2024-03-23T07:15:58;8.16;22.79
66035;HTU21D;52805;51.074;5.842;2024-03-23T07:18:25;8.19;22.67
66035;HTU21D;52805;51.074;5.842;2024-03-23T07:20:55;8.26;22.27
66035;HTU21D;52805;51.074;5.842;2024-03-23T07:23:25;8.23;22.72
66035;HTU21D;52805;51.074;5.842;2024-03-23T07:26:04;8.28;23.58
66035;HTU21D;52805;51.074;5.842;2024-03-23T07:28:33;8.38;23.54
66035;HTU21D;52805;51.074;5.842;2024-03-23T07:31:05;8.44;23.75
66035;HTU21D;52805;51.074;5.842;2024-03-23T07:33:32;8.49;24.28
66035;HTU21D;52805;51.074;5.842;2024-03-23T07:35:58;8.61;24.72
66035;HTU21D;52805;51.074;5.842;2024-03-23T07:38:28;8.70;24.98
66035;HTU21D;52805;51.074;5.842;2024-03-23T07:43:29;8.90;25.92
66035;HTU21D;52805;51.074;5.842;2024-03-23T07:45:55;9.03;26.01
66035;HTU21D;52805;51.074;5.842;2024-03-23T07:48:21;9.01;25.56
66035;HTU21D;52805;51.074;5.842;2024-03-23T07:51:00;9.00;26.48
66035;HTU21D;52805;51.074;5.842;2024-03-23T07:53:28;9.00;27.36
66035;HTU21D;52805;51.074;5.842;2024-03-23T07:55:59;8.98;27.98
66035;HTU21D;52805;51.074;5.842;2024-03-23T07:58:26;9.03;28.45
66035;HTU21D;52805;51.074;5.842;2024-03-23T08:00:55;9.09;29.61
66035;HTU21D;52805;51.074;5.842;2024-03-23T08:03:22;9.14;28.87
66035;HTU21D;52805;51.074;5.842;2024-03-23T08:05:48;9.26;29.51
66035;HTU21D;52805;51.074;5.842;2024-03-23T08:08:14;9.25;29.82
66035;HTU21D;52805;51.074;5.842;2024-03-23T08:10:52;9.31;28.14
66035;HTU21D;52805;51.074;5.842;2024-03-23T08:13:21;9.26;28.66
66035;HTU21D;52805;51.074;5.842;2024-03-23T08:15:47;9.24;27.79
66035;HTU21D;52805;51.074;5.842;2024-03-23T08:18:13;9.27;27.60
66035;HTU21D;52805;51.074;5.842;2024-03-23T08:20:41;9.30;26.66
66035;HTU21D;52805;51.074;5.842;2024-03-23T08:23:07;9.33;26.59
66035;HTU21D;52805;51.074;5.842;2024-03-23T08:25:33;9.31;26.72
66035;HTU21D;52805;51.074;5.842;2024-03-23T08:27:59;9.41;26.85
66035;HTU21D;52805;51.074;5.842;2024-03-23T08:30:28;9.51;26.65
66035;HTU21D;52805;51.074;5.842;2024-03-23T08:32:53;9.64;24.62
66035;HTU21D;52805;51.074;5.842;2024-03-23T08:35:19;9.74;24.62
66035;HTU21D;52805;51.074;5.842;2024-03-23T08:37:45;9.93;24.35
66035;HTU21D;52805;51.074;5.842;2024-03-23T08:40:12;10.01;22.61
66035;HTU21D;52805;51.074;5.842;2024-03-23T08:42:37;10.14;23.02
66035;HTU21D;52805;51.074;5.842;2024-03-23T08:45:03;10.14;21.71
66035;HTU21D;52805;51.074;5.842;2024-03-23T08:47:29;10.14;21.27
66035;HTU21D;52805;51.074;5.842;2024-03-23T08:49:55;10.20;19.56
66035;HTU21D;52805;51.074;5.842;2024-03-23T08:52:20;10.18;18.91
66035;HTU21D;52805;51.074;5.842;2024-03-23T08:54:48;10.27;17.50
66035;HTU21D;52805;51.074;5.842;2024-03-23T08:57:14;10.24;17.71
66035;HTU21D;52805;51.074;5.842;2024-03-23T08:59:39;10.23;16.83
66035;HTU21D;52805;51.074;5.842;2024-03-23T09:02:05;10.34;16.49
66035;HTU21D;52805;51.074;5.842;2024-03-23T09:04:31;10.40;16.68
66035;HTU21D;52805;51.074;5.842;2024-03-23T09:06:57;10.52;16.00
66035;HTU21D;52805;51.074;5.842;2024-03-23T09:09:24;10.59;15.52
66035;HTU21D;52805;51.074;5.842;2024-03-23T09:11:50;10.52;11.03
66035;HTU21D;52805;51.074;5.842;2024-03-23T09:14:15;10.29;11.26
66035;HTU21D;52805;51.074;5.842;2024-03-23T09:16:41;10.01;10.93
66035;HTU21D;52805;51.074;5.842;2024-03-23T09:19:07;9.80;11.11
66035;HTU21D;52805;51.074;5.842;2024-03-23T09:21:33;9.67;11.65
66035;HTU21D;52805;51.074;5.842;2024-03-23T09:23:58;9.56;12.33
66035;HTU21D;52805;51.074;5.842;2024-03-23T09:26:24;9.51;13.17
66035;HTU21D;52805;51.074;5.842;2024-03-23T09:28:50;9.44;13.33
66035;HTU21D;52805;51.074;5.842;2024-03-23T09:31:15;9.40;13.46
66035;HTU21D;52805;51.074;5.842;2024-03-23T09:33:43;9.41;14.33
66035;HTU21D;52805;51.074;5.842;2024-03-23T09:36:09;9.51;15.07
66035;HTU21D;52805;51.074;5.842;2024-03-23T09:38:35;9.59;15.85
66035;HTU21D;52805;51.074;5.842;2024-03-23T09:41:00;9.69;16.90
66035;HTU21D;52805;51.074;5.842;2024-03-23T09:43:26;9.82;17.08
66035;HTU21D;52805;51.074;5.842;2024-03-23T09:45:53;10.05;16.99
66035;HTU21D;52805;51.074;5.842;2024-03-23T09:48:19;10.19;16.85
66035;HTU21D;52805;51.074;5.842;2024-03-23T09:50:45;10.34;16.12
66035;HTU21D;52805;51.074;5.842;2024-03-23T09:53:13;10.56;15.68
66035;HTU21D;52805;51.074;5.842;2024-03-23T09:55:41;10.79;13.55
66035;HTU21D;52805;51.074;5.842;2024-03-23T09:58:06;10.88;13.59
66035;HTU21D;52805;51.074;5.842;2024-03-23T10:00:33;10.89;11.59
66035;HTU21D;52805;51.074;5.842;2024-03-23T10:02:59;10.74;9.24
66035;HTU21D;52805;51.074;5.842;2024-03-23T10:05:28;10.63;8.11
66035;HTU21D;52805;51.074;5.842;2024-03-23T10:07:55;10.57;8.53
66035;HTU21D;52805;51.074;5.842;2024-03-23T10:10:20;10.40;7.32
66035;HTU21D;52805;51.074;5.842;2024-03-23T10:12:50;10.25;7.01
66035;HTU21D;52805;51.074;5.842;2024-03-23T10:15:25;10.21;6.57
66035;HTU21D;52805;51.074;5.842;2024-03-23T10:17:52;10.14;6.67
66035;HTU21D;52805;51.074;5.842;2024-03-23T10:20:22;10.10;5.26
66035;HTU21D;52805;51.074;5.842;2024-03-23T10:22:49;10.04;5.96
66035;HTU21D;52805;51.074;5.842;2024-03-23T10:25:17;9.99;6.39
66035;HTU21D;52805;51.074;5.842;2024-03-23T10:27:43;9.99;6.47
66035;HTU21D;52805;51.074;5.842;2024-03-23T10:30:09;10.05;7.36
66035;HTU21D;52805;51.074;5.842;2024-03-23T10:32:35;10.10;7.28
66035;HTU21D;52805;51.074;5.842;2024-03-23T10:37:41;10.43;7.15
66035;HTU21D;52805;51.074;5.842;2024-03-23T10:40:10;10.56;7.98
66035;HTU21D;52805;51.074;5.842;2024-03-23T10:42:37;10.78;8.31
66035;HTU21D;52805;51.074;5.842;2024-03-23T10:45:07;10.97;7.18
66035;HTU21D;52805;51.074;5.842;2024-03-23T10:47:35;11.11;6.91
66035;HTU21D;52805;51.074;5.842;2024-03-23T10:50:03;11.30;2.99
66035;HTU21D;52805;51.074;5.842;2024-03-23T10:52:29;11.36;1.34
66035;HTU21D;52805;51.074;5.842;2024-03-23T10:54:56;11.37;-0.46
66035;HTU21D;52805;51.074;5.842;2024-03-23T10:57:41;11.23;0.13
66035;HTU21D;52805;51.074;5.842;2024-03-23T11:00:10;11.00;1.73
66035;HTU21D;52805;51.074;5.842;2024-03-23T11:02:36;10.57;1.25
66035;HTU21D;52805;51.074;5.842;2024-03-23T11:05:01;10.24;1.71
66035;HTU21D;52805;51.074;5.842;2024-03-23T11:07:30;9.97;2.22
66035;HTU21D;52805;51.074;5.842;2024-03-23T11:09:57;9.76;3.52
66035;HTU21D;52805;51.074;5.842;2024-03-23T11:15:11;9.21;4.22
66035;HTU21D;52805;51.074;5.842;2024-03-23T11:17:37;8.85;4.82
66035;HTU21D;52805;51.074;5.842;2024-03-23T11:20:06;8.55;5.37
66035;HTU21D;52805;51.074;5.842;2024-03-23T11:25:22;8.19;7.56
66035;HTU21D;52805;51.074;5.842;2024-03-23T11:27:50;8.09;8.80
66035;HTU21D;52805;51.074;5.842;2024-03-23T11:30:27;7.99;9.25
66035;HTU21D;52805;51.074;5.842;2024-03-23T11:32:57;7.96;9.14
66035;HTU21D;52805;51.074;5.842;2024-03-23T11:35:39;8.05;8.95
66035;HTU21D;52805;51.074;5.842;2024-03-23T11:38:16;8.23;8.85
66035;HTU21D;52805;51.074;5.842;2024-03-23T11:40:46;8.50;8.71
66035;HTU21D;52805;51.074;5.842;2024-03-23T11:43:17;8.65;8.62
66035;HTU21D;52805;51.074;5.842;2024-03-23T11:45:48;8.76;8.82
66035;HTU21D;52805;51.074;5.842;2024-03-23T11:48:19;8.75;8.67
66035;HTU21D;52805;51.074;5.842;2024-03-23T11:50:47;8.77;9.05
66035;HTU21D;52805;51.074;5.842;2024-03-23T11:53:16;8.83;9.56
66035;HTU21D;52805;51.074;5.842;2024-03-23T11:58:19;8.86;10.72
66035;HTU21D;52805;51.074;5.842;2024-03-23T12:01:09;8.91;9.21
66035;HTU21D;52805;51.074;5.842;2024-03-23T12:03:35;8.90;9.39
66035;HTU21D;52805;51.074;5.842;2024-03-23T12:06:03;8.89;9.37
66035;HTU21D;52805;51.074;5.842;2024-03-23T12:08:29;8.91;8.92
66035;HTU21D;52805;51.074;5.842;2024-03-23T12:11:12;8.95;9.63
66035;HTU21D;52805;51.074;5.842;2024-03-23T12:13:40;9.12;9.72
66035;HTU21D;52805;51.074;5.842;2024-03-23T12:16:16;9.38;10.56
66035;HTU21D;52805;51.074;5.842;2024-03-23T12:18:44;9.74;10.85
66035;HTU21D;52805;51.074;5.842;2024-03-23T12:21:10;9.96;10.82
66035;HTU21D;52805;51.074;5.842;2024-03-23T12:23:39;10.05;7.11
66035;HTU21D;52805;51.074;5.842;2024-03-23T12:26:05;10.05;9.14
66035;HTU21D;52805;51.074;5.842;2024-03-23T12:28:30;10.08;9.40
66035;HTU21D;52805;51.074;5.842;2024-03-23T12:30:56;10.15;9.37
66035;HTU21D;52805;51.074;5.842;2024-03-23T12:33:22;10.20;9.55
66035;HTU21D;52805;51.074;5.842;2024-03-23T12:35:48;10.29;9.56
66035;HTU21D;52805;51.074;5.842;2024-03-23T12:38:14;10.42;6.88
66035;HTU21D;52805;51.074;5.842;2024-03-23T12:40:39;10.62;7.17
66035;HTU21D;52805;51.074;5.842;2024-03-23T12:43:06;10.85;7.14
66035;HTU21D;52805;51.074;5.842;2024-03-23T12:45:33;10.87;4.35
66035;HTU21D;52805;51.074;5.842;2024-03-23T12:47:59;10.80;4.81
66035;HTU21D;52805;51.074;5.842;2024-03-23T12:50:25;10.69;4.48
66035;HTU21D;52805;51.074;5.842;2024-03-23T12:52:50;10.54;2.47
66035;HTU21D;52805;51.074;5.842;2024-03-23T12:55:16;10.51;2.62
66035;HTU21D;52805;51.074;5.842;2024-03-23T12:57:42;10.54;2.33
66035;HTU21D;52805;51.074;5.842;2024-03-23T13:00:08;10.62;2.84
66035;HTU21D;52805;51.074;5.842;2024-03-23T13:02:38;10.68;3.05
66035;HTU21D;52805;51.074;5.842;2024-03-23T13:05:04;10.82;3.39
66035;HTU21D;52805;51.074;5.842;2024-03-23T13:07:30;11.00;3.38
66035;HTU21D;52805;51.074;5.842;2024-03-23T13:09:56;11.23;3.33
66035;HTU21D;52805;51.074;5.842;2024-03-23T13:12:23;11.54;2.64
66035;HTU21D;52805;51.074;5.842;2024-03-23T13:14:48;11.70;2.41
66035;HTU21D;52805;51.074;5.842;2024-03-23T13:17:14;11.75;2.03
66035;HTU21D;52805;51.074;5.842;2024-03-23T13:19:40;11.68;1.69
66035;HTU21D;52805;51.074;5.842;2024-03-23T13:22:07;11.47;0.15
66035;HTU21D;52805;51.074;5.842;2024-03-23T13:24:32;11.18;1.86
66035;HTU21D;52805;51.074;5.842;2024-03-23T13:26:58;10.87;4.55
66035;HTU21D;52805;51.074;5.842;2024-03-23T13:29:24;10.74;2.83
66035;HTU21D;52805;51.074;5.842;2024-03-23T13:31:51;10.67;5.09
66035;HTU21D;52805;51.074;5.842;2024-03-23T13:34:18;10.57;4.95
66035;HTU21D;52805;51.074;5.842;2024-03-23T13:36:44;10.37;6.31
66035;HTU21D;52805;51.074;5.842;2024-03-23T13:39:11;10.11;7.56
66035;HTU21D;52805;51.074;5.842;2024-03-23T13:41:44;9.96;9.70
66035;HTU21D;52805;51.074;5.842;2024-03-23T13:44:14;9.76;11.46
66035;HTU21D;52805;51.074;5.842;2024-03-23T13:46:41;9.69;9.43
66035;HTU21D;52805;51.074;5.842;2024-03-23T13:49:27;9.84;10.91
66035;HTU21D;52805;51.074;5.842;2024-03-23T13:51:55;10.12;11.58
66035;HTU21D;52805;51.074;5.842;2024-03-23T13:54:23;10.36;10.72
66035;HTU21D;52805;51.074;5.842;2024-03-23T13:56:54;10.43;10.69
66035;HTU21D;52805;51.074;5.842;2024-03-23T13:59:20;10.36;10.24
66035;HTU21D;52805;51.074;5.842;2024-03-23T14:01:46;10.26;10.12
66035;HTU21D;52805;51.074;5.842;2024-03-23T14:04:13;10.11;10.79
66035;HTU21D;52805;51.074;5.842;2024-03-23T14:06:39;10.03;10.73
66035;HTU21D;52805;51.074;5.842;2024-03-23T14:09:08;9.91;11.01
66035;HTU21D;52805;51.074;5.842;2024-03-23T14:11:36;9.84;11.04
66035;HTU21D;52805;51.074;5.842;2024-03-23T14:14:03;9.78;11.20
66035;HTU21D;52805;51.074;5.842;2024-03-23T14:16:30;9.69;11.24
66035;HTU21D;52805;51.074;5.842;2024-03-23T14:18:55;9.60;7.02
66035;HTU21D;52805;51.074;5.842;2024-03-23T14:21:21;9.55;8.34
66035;HTU21D;52805;51.074;5.842;2024-03-23T14:23:47;9.51;8.40
66035;HTU21D;52805;51.074;5.842;2024-03-23T14:26:12;9.63;7.98
66035;HTU21D;52805;51.074;5.842;2024-03-23T14:28:38;9.80;7.93
66035;HTU21D;52805;51.074;5.842;2024-03-23T14:31:04;10.12;8.02
66035;HTU21D;52805;51.074;5.842;2024-03-23T14:33:37;10.59;7.79
66035;HTU21D;52805;51.074;5.842;2024-03-23T14:36:03;10.98;7.30
66035;HTU21D;52805;51.074;5.842;2024-03-23T14:38:29;11.18;5.72
66035;HTU21D;52805;51.074;5.842;2024-03-23T14:40:58;11.19;4.32
66035;HTU21D;52805;51.074;5.842;2024-03-23T14:43:24;11.13;3.71
66035;HTU21D;52805;51.074;5.842;2024-03-23T14:46:06;11.03;3.38
66035;HTU21D;52805;51.074;5.842;2024-03-23T14:48:33;10.94;3.23
66035;HTU21D;52805;51.074;5.842;2024-03-23T14:50:59;10.82;4.49
66035;HTU21D;52805;51.074;5.842;2024-03-23T14:53:26;10.73;4.32
66035;HTU21D;52805;51.074;5.842;2024-03-23T14:55:55;10.58;3.92
66035;HTU21D;52805;51.074;5.842;2024-03-23T14:58:21;10.31;2.83
66035;HTU21D;52805;51.074;5.842;2024-03-23T15:00:48;10.13;4.04
66035;HTU21D;52805;51.074;5.842;2024-03-23T15:03:14;9.88;4.66
66035;HTU21D;52805;51.074;5.842;2024-03-23T15:05:40;9.57;5.12
66035;HTU21D;52805;51.074;5.842;2024-03-23T15:08:06;9.45;5.91
66035;HTU21D;52805;51.074;5.842;2024-03-23T15:10:35;9.41;6.03
66035;HTU21D;52805;51.074;5.842;2024-03-23T15:13:00;9.40;7.11
66035;HTU21D;52805;51.074;5.842;2024-03-23T15:15:26;9.56;7.53
66035;HTU21D;52805;51.074;5.842;2024-03-23T15:17:51;9.70;7.83
66035;HTU21D;52805;51.074;5.842;2024-03-23T15:20:17;9.93;8.46
66035;HTU21D;52805;51.074;5.842;2024-03-23T15:22:43;10.20;8.75
66035;HTU21D;52805;51.074;5.842;2024-03-23T15:25:09;10.51;8.23
66035;HTU21D;52805;51.074;5.842;2024-03-23T15:27:35;10.66;8.11
66035;HTU21D;52805;51.074;5.842;2024-03-23T15:30:00;10.83;7.63
66035;HTU21D;52805;51.074;5.842;2024-03-23T15:32:26;10.99;7.18
66035;HTU21D;52805;51.074;5.842;2024-03-23T15:34:52;11.09;7.02
66035;HTU21D;52805;51.074;5.842;2024-03-23T15:37:17;11.13;6.59
66035;HTU21D;52805;51.074;5.842;2024-03-23T15:39:43;11.14;5.92
66035;HTU21D;52805;51.074;5.842;2024-03-23T15:42:09;11.10;5.75
66035;HTU21D;52805;51.074;5.842;2024-03-23T15:44:35;11.01;5.29
66035;HTU21D;52805;51.074;5.842;2024-03-23T15:47:01;10.94;5.40
66035;HTU21D;52805;51.074;5.842;2024-03-23T15:49:27;11.01;5.44
66035;HTU21D;52805;51.074;5.842;2024-03-23T15:51:52;11.09;5.58
66035;HTU21D;52805;51.074;5.842;2024-03-23T15:54:19;11.24;5.88
66035;HTU21D;52805;51.074;5.842;2024-03-23T16:03:02;11.19;3.70
66035;HTU21D;52805;51.074;5.842;2024-03-23T16:05:28;11.14;4.25
66035;HTU21D;52805;51.074;5.842;2024-03-23T16:07:54;11.00;4.51
66035;HTU21D;52805;51.074;5.842;2024-03-23T16:10:19;10.82;4.83
66035;HTU21D;52805;51.074;5.842;2024-03-23T16:12:45;10.70;5.41
66035;HTU21D;52805;51.074;5.842;2024-03-23T16:15:11;10.57;6.14
66035;HTU21D;52805;51.074;5.842;2024-03-23T16:17:37;10.56;7.03
66035;HTU21D;52805;51.074;5.842;2024-03-23T16:20:03;10.51;7.17
66035;HTU21D;52805;51.074;5.842;2024-03-23T16:22:29;10.43;7.56
66035;HTU21D;52805;51.074;5.842;2024-03-23T16:24:55;10.37;7.85
66035;HTU21D;52805;51.074;5.842;2024-03-23T16:27:21;10.34;8.22
66035;HTU21D;52805;51.074;5.842;2024-03-23T16:29:46;10.34;8.62
66035;HTU21D;52805;51.074;5.842;2024-03-23T16:32:12;10.34;8.35
66035;HTU21D;52805;51.074;5.842;2024-03-23T16:34:38;10.33;8.54
66035;HTU21D;52805;51.074;5.842;2024-03-23T16:37:03;10.31;8.55
66035;HTU21D;52805;51.074;5.842;2024-03-23T16:39:29;10.31;8.60
66035;HTU21D;52805;51.074;5.842;2024-03-23T16:41:54;10.28;8.37